Terminal Aerodrome Forecast
Issued by NWS Amarillo, TX

Home | Current Version | Previous Version | Text Only | Print | Product List | Glossary On
Versions: 1 2 3 4 5 6 7 8 9 10 11 12
000
FTUS44 KAMA 281127
TAFDHT
TAF
KDHT 281127Z 2812/2912 29007KT P6SM SKC
     FM281600 04010KT P6SM SKC
     FM290500 17009KT P6SM SKC=

USA.gov is the U.S. government's official web portal to all federal, state and local government web resources and services.